createdAt,value
2023-04-09T00:01:09.065Z,26.00
2023-04-09T00:03:37.399Z,26.20
2023-04-09T00:06:05.574Z,26.40
2023-04-09T00:08:33.894Z,25.60
2023-04-09T00:11:02.467Z,25.50
2023-04-09T00:16:01.440Z,27.30
2023-04-09T00:18:29.954Z,26.10
2023-04-09T00:20:57.736Z,25.40
2023-04-09T00:23:25.692Z,25.40
2023-04-09T00:25:55.816Z,24.80
2023-04-09T00:28:23.674Z,25.50
2023-04-09T00:30:51.660Z,26.10
2023-04-09T00:33:19.615Z,26.30
2023-04-09T00:35:47.491Z,24.60
2023-04-09T00:38:15.648Z,26.10
2023-04-09T00:40:44.529Z,25.70
2023-04-09T00:43:12.375Z,23.50
2023-04-09T00:45:40.519Z,28.40
2023-04-09T00:48:08.956Z,24.70
2023-04-09T00:50:36.831Z,27.10
2023-04-09T00:53:05.379Z,25.40
2023-04-09T00:55:33.818Z,26.10
2023-04-09T00:58:01.955Z,25.50
2023-04-09T01:00:30.091Z,26.00
2023-04-09T01:02:59.275Z,25.20
2023-04-09T01:05:44.610Z,24.90
2023-04-09T01:08:19.690Z,25.40
2023-04-09T01:10:54.866Z,25.60
2023-04-09T01:13:34.538Z,25.40
2023-04-09T01:16:03.549Z,24.90
2023-04-09T01:18:35.883Z,25.30
2023-04-09T01:21:12.045Z,23.00
2023-04-09T01:23:48.007Z,26.00
2023-04-09T01:26:15.750Z,25.20
2023-04-09T01:28:44.408Z,24.40
2023-04-09T01:31:17.417Z,24.90
2023-04-09T01:33:45.983Z,24.10
2023-04-09T01:36:14.656Z,24.80
2023-04-09T01:38:43.160Z,24.10
2023-04-09T01:41:18.161Z,24.90
2023-04-09T01:43:47.307Z,23.90
2023-04-09T01:46:16.110Z,24.60
2023-04-09T01:48:45.099Z,23.90
2023-04-09T01:51:16.832Z,23.70
2023-04-09T01:53:44.619Z,23.90
2023-04-09T01:56:12.777Z,23.60
2023-04-09T01:58:41.369Z,24.50
2023-04-09T02:01:35.626Z,23.90
2023-04-09T02:04:07.039Z,24.00
2023-04-09T02:06:39.258Z,23.60
2023-04-09T02:09:08.220Z,25.00
2023-04-09T02:11:37.890Z,24.40
2023-04-09T02:14:08.788Z,24.30
2023-04-09T02:16:39.484Z,23.90
2023-04-09T02:19:07.308Z,25.00
2023-04-09T02:21:35.060Z,24.90
2023-04-09T02:24:02.790Z,24.30
2023-04-09T02:26:30.622Z,24.30
2023-04-09T02:28:58.526Z,23.10
2023-04-09T02:31:26.742Z,24.80
2023-04-09T02:33:54.674Z,23.80
2023-04-09T02:36:22.563Z,24.30
2023-04-09T02:38:50.753Z,23.90
2023-04-09T02:41:19.496Z,24.30
2023-04-09T02:43:47.380Z,23.60
2023-04-09T02:46:15.344Z,24.50
2023-04-09T02:48:43.219Z,24.70
2023-04-09T02:51:11.188Z,25.00
2023-04-09T02:53:41.001Z,25.00
2023-04-09T02:56:08.837Z,25.90
2023-04-09T02:58:36.826Z,24.30
2023-04-09T03:01:04.785Z,24.50
2023-04-09T03:03:32.666Z,24.10
2023-04-09T03:06:00.641Z,24.40
2023-04-09T03:08:28.812Z,25.10
2023-04-09T03:10:56.792Z,24.70
2023-04-09T03:13:24.749Z,26.50
2023-04-09T03:15:55.553Z,23.50
2023-04-09T03:18:23.569Z,23.90
2023-04-09T03:20:51.730Z,24.60
2023-04-09T03:23:19.644Z,24.60
2023-04-09T03:25:47.655Z,24.40
2023-04-09T03:28:15.657Z,25.60
2023-04-09T03:30:43.739Z,24.90
2023-04-09T03:33:11.666Z,24.00
2023-04-09T03:35:39.672Z,31.00
2023-04-09T03:38:07.462Z,33.40
2023-04-09T03:40:36.694Z,30.10
2023-04-09T03:43:04.464Z,33.90
2023-04-09T03:45:32.366Z,32.10
2023-04-09T03:48:00.237Z,26.80
2023-04-09T03:50:28.320Z,25.40
2023-04-09T03:52:56.333Z,25.20
2023-04-09T03:55:24.203Z,27.50
2023-04-09T03:57:52.777Z,25.30
2023-04-09T04:00:21.275Z,26.00
2023-04-09T04:02:49.735Z,26.90
2023-04-09T04:05:18.112Z,24.00
2023-04-09T04:07:45.940Z,23.60
2023-04-09T04:10:14.017Z,23.70
2023-04-09T04:12:41.885Z,25.00
2023-04-09T04:15:09.940Z,25.20
2023-04-09T04:17:37.786Z,24.10
2023-04-09T04:20:06.275Z,23.70
2023-04-09T04:22:35.332Z,23.40
2023-04-09T04:25:03.926Z,24.10
2023-04-09T04:27:31.912Z,26.90
2023-04-09T04:30:00.373Z,24.30
2023-04-09T04:32:28.514Z,25.70
2023-04-09T04:34:56.609Z,24.60
2023-04-09T04:37:25.361Z,25.00
2023-04-09T04:39:53.148Z,25.40
2023-04-09T04:42:21.173Z,29.00
2023-04-09T04:44:49.431Z,30.60
2023-04-09T04:47:17.318Z,30.10
2023-04-09T04:49:45.482Z,30.20
2023-04-09T04:52:13.397Z,30.00
2023-04-09T04:54:41.267Z,27.10
2023-04-09T04:57:09.232Z,26.90
2023-04-09T04:59:38.952Z,26.20
2023-04-09T05:02:07.873Z,25.90
2023-04-09T05:04:36.363Z,27.90
2023-04-09T05:07:04.224Z,25.70
2023-04-09T05:09:32.148Z,25.70
2023-04-09T05:11:59.910Z,31.30
2023-04-09T05:14:28.490Z,28.10
2023-04-09T05:16:56.761Z,31.70
2023-04-09T05:19:24.837Z,37.90
2023-04-09T05:21:53.125Z,30.90
2023-04-09T05:24:21.462Z,28.40
2023-04-09T05:26:49.374Z,28.30
2023-04-09T05:29:17.419Z,30.40
2023-04-09T05:31:45.151Z,29.20
2023-04-09T05:34:12.991Z,29.70
2023-04-09T05:36:41.345Z,29.60
2023-04-09T05:39:09.161Z,29.30
2023-04-09T05:41:38.709Z,29.00
2023-04-09T05:44:06.804Z,29.60
2023-04-09T05:46:35.080Z,31.10
2023-04-09T05:49:03.254Z,31.10
2023-04-09T05:51:31.147Z,31.10
2023-04-09T05:53:59.588Z,31.50
2023-04-09T05:56:28.268Z,31.40
2023-04-09T05:58:56.109Z,32.90
2023-04-09T06:01:23.851Z,30.70
2023-04-09T06:03:53.919Z,30.00
2023-04-09T06:06:23.303Z,29.90
2023-04-09T06:08:51.429Z,29.50
2023-04-09T06:11:19.350Z,31.00
2023-04-09T06:13:47.418Z,31.90
2023-04-09T06:16:16.262Z,31.90
2023-04-09T06:18:46.752Z,30.10
2023-04-09T06:21:15.009Z,29.50
2023-04-09T06:23:43.849Z,28.30
2023-04-09T06:26:12.837Z,28.70
2023-04-09T06:28:41.088Z,26.60
2023-04-09T06:31:09.601Z,33.20
2023-04-09T06:33:38.054Z,30.10
2023-04-09T06:36:06.568Z,28.40
2023-04-09T06:38:34.685Z,28.50
2023-04-09T06:41:02.843Z,28.00
2023-04-09T06:43:30.847Z,25.90
2023-04-09T06:45:58.761Z,26.50
2023-04-09T06:48:26.675Z,26.70
2023-04-09T06:50:55.342Z,27.50
2023-04-09T06:53:24.314Z,26.40
2023-04-09T06:55:52.307Z,25.60
2023-04-09T06:58:21.245Z,25.40
2023-04-09T07:00:49.114Z,24.60
2023-04-09T07:03:17.377Z,25.40
2023-04-09T07:05:46.634Z,26.00
2023-04-09T07:08:15.142Z,25.10
2023-04-09T07:10:43.298Z,24.30
2023-04-09T07:13:11.778Z,24.90
2023-04-09T07:15:40.631Z,25.80
2023-04-09T07:18:10.462Z,25.00
2023-04-09T07:20:39.032Z,25.70
2023-04-09T07:23:07.152Z,24.90
2023-04-09T07:25:35.623Z,25.50
2023-04-09T07:28:04.462Z,24.40
2023-04-09T07:30:33.065Z,24.90
2023-04-09T07:33:01.111Z,24.50
2023-04-09T07:35:29.990Z,24.50
2023-04-09T07:37:59.220Z,25.20
2023-04-09T07:40:27.397Z,26.40
2023-04-09T07:42:57.609Z,26.90
2023-04-09T07:45:26.198Z,27.00
2023-04-09T07:47:54.412Z,25.20
2023-04-09T07:50:22.642Z,23.90
2023-04-09T07:52:50.659Z,26.60
2023-04-09T07:55:19.208Z,26.40
2023-04-09T07:57:48.393Z,27.00
2023-04-09T08:00:17.004Z,34.00
2023-04-09T08:02:45.153Z,26.90
2023-04-09T08:05:13.773Z,25.20
2023-04-09T08:07:42.071Z,29.50
2023-04-09T08:10:15.293Z,30.30
2023-04-09T08:12:43.500Z,33.90
2023-04-09T08:15:11.907Z,40.00
2023-04-09T08:17:40.183Z,50.00
2023-04-09T08:20:08.613Z,30.30
2023-04-09T08:22:37.007Z,28.80
2023-04-09T08:25:05.484Z,29.80
2023-04-09T08:27:34.772Z,29.00
2023-04-09T08:30:04.134Z,25.70
2023-04-09T08:32:32.366Z,26.80
2023-04-09T08:35:00.931Z,33.60
2023-04-09T08:37:29.775Z,26.20
2023-04-09T08:39:57.779Z,28.80
2023-04-09T08:42:29.437Z,26.40
2023-04-09T08:44:57.606Z,27.30
2023-04-09T08:47:26.132Z,26.60
2023-04-09T08:49:54.474Z,29.00
2023-04-09T08:52:31.591Z,31.50
2023-04-09T08:55:01.201Z,28.20
2023-04-09T08:57:29.636Z,27.50
2023-04-09T08:59:59.015Z,27.80
2023-04-09T09:02:28.061Z,31.10
2023-04-09T09:05:01.110Z,29.30
2023-04-09T09:07:32.383Z,27.30
2023-04-09T09:10:04.933Z,36.10
2023-04-09T09:12:39.766Z,28.00
2023-04-09T09:15:28.210Z,28.60
2023-04-09T09:18:00.018Z,31.10
2023-04-09T09:20:30.591Z,29.30
2023-04-09T09:23:00.003Z,26.80
2023-04-09T09:25:28.019Z,28.20
2023-04-09T09:28:06.470Z,29.80
2023-04-09T09:30:38.571Z,31.60
2023-04-09T09:33:10.690Z,30.00
2023-04-09T09:35:49.629Z,28.60
2023-04-09T09:38:18.468Z,25.90
2023-04-09T09:40:46.922Z,25.90
2023-04-09T09:43:15.094Z,29.10
2023-04-09T09:45:44.433Z,29.00
2023-04-09T09:48:13.073Z,26.40
2023-04-09T09:50:44.595Z,26.40
2023-04-09T09:53:14.191Z,26.50
2023-04-09T09:55:48.945Z,26.40
2023-04-09T09:58:17.996Z,25.10
2023-04-09T10:00:47.561Z,26.60
2023-04-09T10:03:21.410Z,26.10
2023-04-09T10:05:50.739Z,27.20
2023-04-09T10:08:20.355Z,28.30
2023-04-09T10:10:49.469Z,26.60
2023-04-09T10:13:24.665Z,27.20
2023-04-09T10:15:53.730Z,31.20
2023-04-09T10:18:22.588Z,30.80
2023-04-09T10:20:56.447Z,31.70
2023-04-09T10:23:36.306Z,30.90
2023-04-09T10:26:06.072Z,26.30
2023-04-09T10:28:35.458Z,30.20
2023-04-09T10:31:07.938Z,28.20
2023-04-09T10:33:37.849Z,31.40
2023-04-09T10:36:10.319Z,29.10
2023-04-09T10:38:45.791Z,31.80
2023-04-09T10:41:17.514Z,29.10
2023-04-09T10:43:47.266Z,30.00
2023-04-09T10:46:46.430Z,31.70
2023-04-09T10:49:18.381Z,29.10
2023-04-09T10:52:02.064Z,35.40
2023-04-09T10:54:33.547Z,35.10
2023-04-09T10:57:07.869Z,30.20
2023-04-09T10:59:42.705Z,29.70
2023-04-09T11:02:21.504Z,28.40
2023-04-09T11:05:08.414Z,28.30
2023-04-09T11:07:40.990Z,29.40
2023-04-09T11:10:09.610Z,29.40
2023-04-09T11:12:37.781Z,29.10
2023-04-09T11:15:06.480Z,27.40
2023-04-09T11:17:37.431Z,28.60
2023-04-09T11:20:06.495Z,29.10
2023-04-09T11:22:34.462Z,28.30
2023-04-09T11:25:03.269Z,28.20
2023-04-09T11:27:31.042Z,30.20
2023-04-09T11:29:59.491Z,29.80
2023-04-09T11:32:30.369Z,29.00
2023-04-09T11:34:58.509Z,30.20
2023-04-09T11:37:26.431Z,27.60
2023-04-09T11:39:57.351Z,29.70
2023-04-09T11:42:30.908Z,28.10
2023-04-09T11:45:01.417Z,29.40
2023-04-09T11:47:29.905Z,29.30
2023-04-09T11:49:58.290Z,29.10
2023-04-09T11:52:28.115Z,30.50
2023-04-09T11:55:02.218Z,30.90
2023-04-09T11:57:37.354Z,28.60
2023-04-09T12:00:07.543Z,29.70
2023-04-09T12:02:37.773Z,29.60
2023-04-09T12:05:07.390Z,28.20
2023-04-09T12:07:35.833Z,29.40
2023-04-09T12:10:05.136Z,27.70
2023-04-09T12:12:39.701Z,27.00
2023-04-09T12:15:26.313Z,28.30
2023-04-09T12:17:55.788Z,27.10
2023-04-09T12:20:39.913Z,27.10
2023-04-09T12:23:08.851Z,27.50
2023-04-09T12:25:41.124Z,27.30
2023-04-09T12:28:10.019Z,28.80
2023-04-09T12:30:37.998Z,28.30
2023-04-09T12:33:09.557Z,26.60
2023-04-09T12:35:40.860Z,27.80
2023-04-09T12:38:09.072Z,27.40
2023-04-09T12:40:37.120Z,27.40
2023-04-09T12:43:05.664Z,27.40
2023-04-09T12:45:33.463Z,27.50
2023-04-09T12:48:01.617Z,27.50
2023-04-09T12:50:29.816Z,26.50
2023-04-09T12:52:57.681Z,26.10
2023-04-09T12:55:25.792Z,26.00
2023-04-09T12:57:53.892Z,26.30
2023-04-09T13:00:21.996Z,26.20
2023-04-09T13:02:51.722Z,26.60
2023-04-09T13:05:19.980Z,25.70
2023-04-09T13:07:48.260Z,26.40
2023-04-09T13:10:16.339Z,27.90
2023-04-09T13:12:44.559Z,26.40
2023-04-09T13:15:13.079Z,26.60
2023-04-09T13:17:40.960Z,27.60
2023-04-09T13:20:09.330Z,26.00
2023-04-09T13:22:37.406Z,25.50
2023-04-09T13:25:06.485Z,25.80
2023-04-09T13:27:34.562Z,25.90
2023-04-09T13:30:03.631Z,25.20
2023-04-09T13:32:31.533Z,27.20
2023-04-09T13:35:00.428Z,25.60
2023-04-09T13:37:30.646Z,25.20
2023-04-09T13:39:59.230Z,25.70
2023-04-09T13:42:28.105Z,26.10
2023-04-09T13:44:56.878Z,26.00
2023-04-09T13:47:25.107Z,26.20
2023-04-09T13:49:53.396Z,26.20
2023-04-09T13:52:21.266Z,26.00
2023-04-09T13:54:49.604Z,25.60
2023-04-09T13:57:17.441Z,25.10
2023-04-09T13:59:45.622Z,26.60
2023-04-09T14:02:13.756Z,25.10
2023-04-09T14:04:42.312Z,26.60
2023-04-09T14:07:10.750Z,26.90
2023-04-09T14:09:39.442Z,25.80
2023-04-09T14:12:07.723Z,25.80
2023-04-09T14:14:36.091Z,25.90
2023-04-09T14:17:04.061Z,25.70
2023-04-09T14:19:32.767Z,26.20
2023-04-09T14:22:01.031Z,25.80
2023-04-09T14:24:29.306Z,26.40
2023-04-09T14:26:57.246Z,25.70
2023-04-09T14:29:25.648Z,26.10
2023-04-09T14:31:56.663Z,27.70
2023-04-09T14:34:25.674Z,27.40
2023-04-09T14:36:53.561Z,27.30
2023-04-09T14:39:21.760Z,26.30
2023-04-09T14:41:49.584Z,27.10
2023-04-09T14:44:17.855Z,26.20
2023-04-09T14:46:46.456Z,26.60
2023-04-09T14:49:14.617Z,25.40
2023-04-09T14:51:42.555Z,24.30
2023-04-09T14:54:10.961Z,21.70
2023-04-09T14:56:38.826Z,20.70
2023-04-09T14:59:06.997Z,20.60
2023-04-09T15:01:34.972Z,19.60
2023-04-09T15:04:03.407Z,20.90
2023-04-09T15:06:33.116Z,20.10
2023-04-09T15:09:01.782Z,19.30
2023-04-09T15:11:29.851Z,19.00
2023-04-09T15:13:58.299Z,19.60
2023-04-09T15:16:28.531Z,19.20
2023-04-09T15:18:58.738Z,19.70
2023-04-09T15:21:28.027Z,18.60
2023-04-09T15:23:58.955Z,19.00
2023-04-09T15:26:27.506Z,18.50
2023-04-09T15:29:05.535Z,19.70
2023-04-09T15:31:33.997Z,19.10
2023-04-09T15:34:02.216Z,19.90
2023-04-09T15:36:32.193Z,19.80
2023-04-09T15:39:02.030Z,19.90
2023-04-09T15:41:32.454Z,19.00
2023-04-09T15:44:00.525Z,20.20
2023-04-09T15:46:28.628Z,18.60
2023-04-09T15:48:56.779Z,19.30
2023-04-09T15:51:25.070Z,18.90
2023-04-09T15:53:53.502Z,18.10
2023-04-09T15:56:26.147Z,17.60
2023-04-09T15:58:55.014Z,16.60
2023-04-09T16:01:24.148Z,17.10
2023-04-09T16:03:52.578Z,17.10
2023-04-09T16:06:22.672Z,17.00
2023-04-09T16:08:52.280Z,16.50
2023-04-09T16:11:20.642Z,16.40
2023-04-09T16:13:48.760Z,16.50
2023-04-09T16:16:17.172Z,17.20
2023-04-09T16:18:45.369Z,16.70
2023-04-09T16:21:15.560Z,16.00
2023-04-09T16:23:44.622Z,16.30
2023-04-09T16:26:13.210Z,17.00
2023-04-09T16:28:41.799Z,17.60
2023-04-09T16:31:09.697Z,16.50
2023-04-09T16:33:39.597Z,17.30
2023-04-09T16:36:07.765Z,17.80
2023-04-09T16:38:37.140Z,17.30
2023-04-09T16:41:05.726Z,17.70
2023-04-09T16:43:34.098Z,17.40
2023-04-09T16:46:02.879Z,17.80
2023-04-09T16:48:32.689Z,16.10
2023-04-09T16:51:00.760Z,16.70
2023-04-09T16:53:31.620Z,16.90
2023-04-09T16:56:00.211Z,17.20
2023-04-09T16:58:29.169Z,17.30
2023-04-09T17:01:00.244Z,17.20
2023-04-09T17:03:28.958Z,16.90
2023-04-09T17:05:57.661Z,17.30
2023-04-09T17:08:27.044Z,17.40
2023-04-09T17:11:03.226Z,19.60
2023-04-09T17:13:34.667Z,18.20
2023-04-09T17:16:03.489Z,17.80
2023-04-09T17:18:31.622Z,17.30
2023-04-09T17:21:00.764Z,17.90
2023-04-09T17:23:29.314Z,18.10
2023-04-09T17:25:57.808Z,16.90
2023-04-09T17:28:26.020Z,17.50
2023-04-09T17:30:54.227Z,17.50
2023-04-09T17:33:23.161Z,17.90
2023-04-09T17:35:51.441Z,18.70
2023-04-09T17:38:21.678Z,18.30
2023-04-09T17:40:49.713Z,18.60
2023-04-09T17:43:18.623Z,19.10
2023-04-09T17:45:46.795Z,19.20
2023-04-09T17:48:15.271Z,19.20
2023-04-09T17:50:43.432Z,19.30
2023-04-09T17:53:14.022Z,18.80
2023-04-09T17:55:48.862Z,20.20
2023-04-09T17:58:17.156Z,19.20
2023-04-09T18:00:45.347Z,19.00
2023-04-09T18:03:14.591Z,20.00
2023-04-09T18:05:43.357Z,19.20
2023-04-09T18:08:12.622Z,19.30
2023-04-09T18:10:43.373Z,20.70
2023-04-09T18:13:12.458Z,21.20
2023-04-09T18:15:42.751Z,20.50
2023-04-09T18:18:12.700Z,20.00
2023-04-09T18:20:41.272Z,20.40
2023-04-09T18:23:09.536Z,19.90
2023-04-09T18:25:37.909Z,19.70
2023-04-09T18:28:06.627Z,19.10
2023-04-09T18:30:36.240Z,20.40
2023-04-09T18:33:05.421Z,20.30
2023-04-09T18:35:33.953Z,20.70
2023-04-09T18:38:02.075Z,20.10
2023-04-09T18:40:30.356Z,19.80
2023-04-09T18:42:59.029Z,20.20
2023-04-09T18:45:27.917Z,20.90
2023-04-09T18:47:56.534Z,20.60
2023-04-09T18:50:25.342Z,20.20
2023-04-09T18:52:53.770Z,20.70
2023-04-09T18:55:23.303Z,20.90
2023-04-09T18:57:52.782Z,20.70
2023-04-09T19:00:20.969Z,20.60
2023-04-09T19:02:51.517Z,20.40
2023-04-09T19:05:19.961Z,20.10
2023-04-09T19:07:48.234Z,21.10
2023-04-09T19:10:16.485Z,21.10
2023-04-09T19:12:51.341Z,24.60
2023-04-09T19:15:23.518Z,22.60
2023-04-09T19:17:53.221Z,33.80
2023-04-09T19:20:22.128Z,31.70
2023-04-09T19:22:52.022Z,32.20
2023-04-09T19:25:21.285Z,28.80
2023-04-09T19:27:50.514Z,25.10
2023-04-09T19:30:19.203Z,25.50
2023-04-09T19:32:47.125Z,25.60
2023-04-09T19:35:18.666Z,26.00
2023-04-09T19:37:47.115Z,27.80
2023-04-09T19:40:17.032Z,30.40
2023-04-09T19:42:45.707Z,26.80
2023-04-09T19:45:14.176Z,26.40
2023-04-09T19:47:42.662Z,24.80
2023-04-09T19:50:11.445Z,23.00
2023-04-09T19:52:40.745Z,22.50
2023-04-09T19:55:09.143Z,22.90
2023-04-09T19:57:38.219Z,23.40
2023-04-09T20:00:07.918Z,24.50
2023-04-09T20:02:42.199Z,25.50
2023-04-09T20:05:12.486Z,25.40
2023-04-09T20:07:41.255Z,26.10
2023-04-09T20:10:10.467Z,26.10
2023-04-09T20:12:38.486Z,27.00
2023-04-09T20:15:09.723Z,26.60
2023-04-09T20:17:39.093Z,26.90
2023-04-09T20:20:07.980Z,25.90
2023-04-09T20:22:36.126Z,25.30
2023-04-09T20:25:04.200Z,26.60
2023-04-09T20:27:31.983Z,26.30
2023-04-09T20:30:00.037Z,24.60
2023-04-09T20:32:28.358Z,24.80
2023-04-09T20:34:56.996Z,24.40
2023-04-09T20:37:25.276Z,22.40
2023-04-09T20:39:53.334Z,23.80
2023-04-09T20:42:21.409Z,22.30
2023-04-09T20:44:49.794Z,22.30
2023-04-09T20:47:17.749Z,23.20
2023-04-09T20:49:47.358Z,24.90
2023-04-09T20:52:15.649Z,22.80
2023-04-09T20:54:43.636Z,24.40
2023-04-09T20:57:13.717Z,26.10
2023-04-09T20:59:42.014Z,26.40
2023-04-09T21:02:12.897Z,27.50
2023-04-09T21:04:41.517Z,27.00
2023-04-09T21:07:11.080Z,35.70
2023-04-09T21:09:39.300Z,34.50
2023-04-09T21:12:07.244Z,30.00
2023-04-09T21:14:35.229Z,30.20
2023-04-09T21:17:05.959Z,30.90
2023-04-09T21:19:34.860Z,31.80
2023-04-09T21:22:02.780Z,33.70
2023-04-09T21:24:35.405Z,32.80
2023-04-09T21:27:07.066Z,31.60
2023-04-09T21:29:35.519Z,30.20
2023-04-09T21:32:03.510Z,29.20
2023-04-09T21:34:32.488Z,26.80
2023-04-09T21:37:02.518Z,26.40
2023-04-09T21:39:30.590Z,24.30
2023-04-09T21:41:58.891Z,24.80
2023-04-09T21:44:26.721Z,24.60
2023-04-09T21:46:54.697Z,24.00
2023-04-09T21:49:23.102Z,25.00
2023-04-09T21:51:51.251Z,23.10
2023-04-09T21:54:19.221Z,24.10
2023-04-09T21:56:47.391Z,25.10
2023-04-09T21:59:15.783Z,23.80
2023-04-09T22:01:43.895Z,24.80
2023-04-09T22:04:11.985Z,24.60
2023-04-09T22:06:40.306Z,24.10
2023-04-09T22:09:10.838Z,22.90
2023-04-09T22:11:41.822Z,24.20
2023-04-09T22:14:10.605Z,22.60
2023-04-09T22:16:38.471Z,22.00
2023-04-09T22:19:06.687Z,22.20
2023-04-09T22:21:34.659Z,23.20
2023-04-09T22:24:02.481Z,21.80
2023-04-09T22:26:31.720Z,22.00
2023-04-09T22:28:59.512Z,21.40
2023-04-09T22:31:28.459Z,20.20
2023-04-09T22:33:57.568Z,19.70
2023-04-09T22:36:27.800Z,19.50
2023-04-09T22:38:56.088Z,19.70
2023-04-09T22:41:24.743Z,19.20
2023-04-09T22:43:54.581Z,18.80
2023-04-09T22:46:22.466Z,20.40
2023-04-09T22:48:51.009Z,21.20
2023-04-09T22:51:19.128Z,21.10
2023-04-09T22:53:47.355Z,20.80
2023-04-09T22:56:15.271Z,21.00
2023-04-09T22:58:43.852Z,20.50
2023-04-09T23:01:11.802Z,21.60
2023-04-09T23:03:39.772Z,26.10
2023-04-09T23:06:07.909Z,24.20
2023-04-09T23:08:35.766Z,26.10
2023-04-09T23:11:05.465Z,24.10
2023-04-09T23:13:33.272Z,24.40
2023-04-09T23:16:04.185Z,22.60
2023-04-09T23:18:32.453Z,24.50
2023-04-09T23:21:05.576Z,28.60
2023-04-09T23:23:35.003Z,26.40
2023-04-09T23:26:03.008Z,24.60
2023-04-09T23:28:31.076Z,28.50
2023-04-09T23:30:59.237Z,27.90
2023-04-09T23:33:27.547Z,24.90
2023-04-09T23:35:55.724Z,25.30
2023-04-09T23:38:23.904Z,26.50
2023-04-09T23:40:51.850Z,25.20
2023-04-09T23:43:19.919Z,24.00
2023-04-09T23:45:50.166Z,22.60
2023-04-09T23:48:18.220Z,21.80
2023-04-09T23:50:48.412Z,21.90
2023-04-09T23:53:16.303Z,20.30
2023-04-09T23:55:45.497Z,20.30
2023-04-09T23:58:14.076Z,25.40
